sensor_id;sensor_type;location;lat;lon;timestamp;pressure;altitude;pressure_sealevel;temperature;humidity
11124;BME280;5616;42.692;23.312;2023-01-23T00:01:14;95548.16;;;10.10;86.62
11124;BME280;5616;42.692;23.312;2023-01-23T00:03:41;95536.44;;;9.91;86.86
11124;BME280;5616;42.692;23.312;2023-01-23T00:06:12;95528.69;;;9.99;86.98
11124;BME280;5616;42.692;23.312;2023-01-23T00:08:40;95542.22;;;9.93;86.54
11124;BME280;5616;42.692;23.312;2023-01-23T00:11:09;95548.38;;;9.84;87.28
11124;BME280;5616;42.692;23.312;2023-01-23T00:13:37;95547.78;;;9.74;86.56
11124;BME280;5616;42.692;23.312;2023-01-23T00:16:04;95547.94;;;9.64;86.85
11124;BME280;5616;42.692;23.312;2023-01-23T00:18:33;95548.59;;;9.58;87.05
11124;BME280;5616;42.692;23.312;2023-01-23T00:21:02;95551.16;;;9.66;87.08
11124;BME280;5616;42.692;23.312;2023-01-23T00:23:29;95547.91;;;9.80;85.97
11124;BME280;5616;42.692;23.312;2023-01-23T00:26:01;95553.72;;;9.74;86.63
11124;BME280;5616;42.692;23.312;2023-01-23T00:28:28;95553.06;;;9.72;87.51
11124;BME280;5616;42.692;23.312;2023-01-23T00:31:02;95547.59;;;9.75;86.87
11124;BME280;5616;42.692;23.312;2023-01-23T00:33:28;95550.97;;;9.84;86.63
11124;BME280;5616;42.692;23.312;2023-01-23T00:35:57;95553.69;;;9.82;87.30
11124;BME280;5616;42.692;23.312;2023-01-23T00:38:23;95554.19;;;9.70;87.47
11124;BME280;5616;42.692;23.312;2023-01-23T00:40:50;95557.59;;;9.70;87.39
11124;BME280;5616;42.692;23.312;2023-01-23T00:43:19;95555.19;;;9.77;87.58
11124;BME280;5616;42.692;23.312;2023-01-23T00:45:47;95560.50;;;9.67;88.51
11124;BME280;5616;42.692;23.312;2023-01-23T00:48:14;95561.47;;;9.74;87.52
11124;BME280;5616;42.692;23.312;2023-01-23T00:50:40;95566.28;;;9.69;88.19
11124;BME280;5616;42.692;23.312;2023-01-23T00:53:09;95572.72;;;9.81;87.50
11124;BME280;5616;42.692;23.312;2023-01-23T00:55:37;95580.28;;;9.83;86.75
11124;BME280;5616;42.692;23.312;2023-01-23T00:58:04;95566.59;;;9.82;86.46
11124;BME280;5616;42.692;23.312;2023-01-23T01:00:31;95571.13;;;9.80;86.35
11124;BME280;5616;42.692;23.312;2023-01-23T01:02:58;95570.47;;;9.87;86.47
11124;BME280;5616;42.692;23.312;2023-01-23T01:05:24;95567.25;;;9.76;86.15
11124;BME280;5616;42.692;23.312;2023-01-23T01:07:51;95562.44;;;9.73;86.29
11124;BME280;5616;42.692;23.312;2023-01-23T01:10:20;95566.44;;;9.84;85.99
11124;BME280;5616;42.692;23.312;2023-01-23T01:12:47;95561.28;;;9.76;86.10
11124;BME280;5616;42.692;23.312;2023-01-23T01:15:14;95572.13;;;9.63;87.44
11124;BME280;5616;42.692;23.312;2023-01-23T01:17:41;95571.94;;;9.73;86.59
11124;BME280;5616;42.692;23.312;2023-01-23T01:20:09;95571.63;;;9.60;87.68
11124;BME280;5616;42.692;23.312;2023-01-23T01:22:36;95573.38;;;9.67;87.65
11124;BME280;5616;42.692;23.312;2023-01-23T01:25:03;95575.31;;;9.73;87.21
11124;BME280;5616;42.692;23.312;2023-01-23T01:27:32;95587.09;;;9.76;87.71
11124;BME280;5616;42.692;23.312;2023-01-23T01:29:58;95587.09;;;9.76;86.63
11124;BME280;5616;42.692;23.312;2023-01-23T01:32:25;95588.22;;;9.73;86.59
11124;BME280;5616;42.692;23.312;2023-01-23T01:34:52;95596.28;;;9.70;87.37
11124;BME280;5616;42.692;23.312;2023-01-23T01:37:19;95594.34;;;9.64;87.46
11124;BME280;5616;42.692;23.312;2023-01-23T01:39:47;95593.19;;;9.75;87.01
11124;BME280;5616;42.692;23.312;2023-01-23T01:42:14;95593.38;;;9.73;87.25
11124;BME280;5616;42.692;23.312;2023-01-23T01:44:54;95598.84;;;9.70;87.60
11124;BME280;5616;42.692;23.312;2023-01-23T01:47:21;95595.00;;;9.74;88.23
11124;BME280;5616;42.692;23.312;2023-01-23T01:49:48;95595.94;;;9.73;87.73
11124;BME280;5616;42.692;23.312;2023-01-23T01:52:19;95596.75;;;9.82;86.88
11124;BME280;5616;42.692;23.312;2023-01-23T01:54:50;95603.34;;;9.93;86.41
11124;BME280;5616;42.692;23.312;2023-01-23T01:57:20;95593.03;;;9.93;86.31
11124;BME280;5616;42.692;23.312;2023-01-23T01:59:54;95583.03;;;9.90;86.55
11124;BME280;5616;42.692;23.312;2023-01-23T02:02:25;95593.50;;;9.96;87.13
11124;BME280;5616;42.692;23.312;2023-01-23T02:04:58;95601.09;;;9.81;87.65
11124;BME280;5616;42.692;23.312;2023-01-23T02:07:31;95607.72;;;9.84;87.52
11124;BME280;5616;42.692;23.312;2023-01-23T02:10:00;95606.09;;;9.83;87.54
11124;BME280;5616;42.692;23.312;2023-01-23T02:12:28;95604.81;;;9.87;87.92
11124;BME280;5616;42.692;23.312;2023-01-23T02:14:57;95597.38;;;9.92;88.02
11124;BME280;5616;42.692;23.312;2023-01-23T02:17:24;95593.81;;;9.93;88.75
11124;BME280;5616;42.692;23.312;2023-01-23T02:19:54;95601.91;;;9.98;87.92
11124;BME280;5616;42.692;23.312;2023-01-23T02:22:31;95581.72;;;9.94;87.27
11124;BME280;5616;42.692;23.312;2023-01-23T02:25:07;95608.63;;;10.07;87.65
11124;BME280;5616;42.692;23.312;2023-01-23T02:27:36;95605.41;;;10.05;86.89
11124;BME280;5616;42.692;23.312;2023-01-23T02:30:04;95598.19;;;9.93;87.96
11124;BME280;5616;42.692;23.312;2023-01-23T02:32:32;95601.72;;;10.00;87.11
11124;BME280;5616;42.692;23.312;2023-01-23T02:35:08;95599.16;;;9.92;88.18
11124;BME280;5616;42.692;23.312;2023-01-23T02:37:36;95602.38;;;9.85;88.46
11124;BME280;5616;42.692;23.312;2023-01-23T02:40:10;95606.91;;;9.83;88.49
11124;BME280;5616;42.692;23.312;2023-01-23T02:42:41;95606.91;;;9.75;88.83
11124;BME280;5616;42.692;23.312;2023-01-23T02:45:12;95614.97;;;9.64;89.67
11124;BME280;5616;42.692;23.312;2023-01-23T02:47:39;95608.53;;;9.52;89.60
11124;BME280;5616;42.692;23.312;2023-01-23T02:50:06;95612.72;;;9.53;90.26
11124;BME280;5616;42.692;23.312;2023-01-23T02:52:33;95614.31;;;9.46;90.59
11124;BME280;5616;42.692;23.312;2023-01-23T02:55:00;95603.88;;;9.48;91.00
11124;BME280;5616;42.692;23.312;2023-01-23T02:57:27;95606.91;;;9.51;90.27
11124;BME280;5616;42.692;23.312;2023-01-23T02:59:55;95598.38;;;9.43;90.63
11124;BME280;5616;42.692;23.312;2023-01-23T03:02:39;95606.25;;;9.41;90.62
11124;BME280;5616;42.692;23.312;2023-01-23T03:05:09;95594.81;;;9.36;90.89
11124;BME280;5616;42.692;23.312;2023-01-23T03:07:36;95608.53;;;9.36;90.70
11124;BME280;5616;42.692;23.312;2023-01-23T03:10:03;95611.41;;;9.33;90.84
11124;BME280;5616;42.692;23.312;2023-01-23T03:12:32;95615.59;;;9.26;91.58
11124;BME280;5616;42.692;23.312;2023-01-23T03:15:00;95608.19;;;9.23;91.25
11124;BME280;5616;42.692;23.312;2023-01-23T03:17:30;95613.97;;;9.25;90.94
11124;BME280;5616;42.692;23.312;2023-01-23T03:19:57;95600.94;;;9.27;91.22
11124;BME280;5616;42.692;23.312;2023-01-23T03:22:24;95606.91;;;9.35;90.93
11124;BME280;5616;42.692;23.312;2023-01-23T03:24:51;95607.38;;;9.31;90.75
11124;BME280;5616;42.692;23.312;2023-01-23T03:27:18;95615.28;;;9.29;90.25
11124;BME280;5616;42.692;23.312;2023-01-23T03:29:49;95602.88;;;9.33;90.78
11124;BME280;5616;42.692;23.312;2023-01-23T03:32:31;95602.41;;;9.37;90.20
11124;BME280;5616;42.692;23.312;2023-01-23T03:34:58;95604.81;;;9.31;90.61
11124;BME280;5616;42.692;23.312;2023-01-23T03:37:25;95605.59;;;9.23;89.89
11124;BME280;5616;42.692;23.312;2023-01-23T03:39:53;95604.97;;;9.21;91.46
11124;BME280;5616;42.692;23.312;2023-01-23T03:42:37;95601.75;;;9.19;91.45
11124;BME280;5616;42.692;23.312;2023-01-23T03:45:08;95603.84;;;9.32;90.48
11124;BME280;5616;42.692;23.312;2023-01-23T03:47:36;95600.78;;;9.36;89.79
11124;BME280;5616;42.692;23.312;2023-01-23T03:50:06;95608.50;;;9.28;90.47
11124;BME280;5616;42.692;23.312;2023-01-23T03:52:35;95619.44;;;9.22;90.91
11124;BME280;5616;42.692;23.312;2023-01-23T03:55:04;95614.97;;;9.24;90.54
11124;BME280;5616;42.692;23.312;2023-01-23T03:57:31;95619.78;;;9.19;90.71
11124;BME280;5616;42.692;23.312;2023-01-23T04:00:16;95621.56;;;9.27;90.58
11124;BME280;5616;42.692;23.312;2023-01-23T04:02:50;95616.25;;;9.28;90.06
11124;BME280;5616;42.692;23.312;2023-01-23T04:05:17;95613.03;;;9.26;90.30
11124;BME280;5616;42.692;23.312;2023-01-23T04:07:44;95618.81;;;9.28;89.78
11124;BME280;5616;42.692;23.312;2023-01-23T04:10:12;95624.44;;;9.23;90.28
11124;BME280;5616;42.692;23.312;2023-01-23T04:12:41;95631.34;;;9.15;90.68
11124;BME280;5616;42.692;23.312;2023-01-23T04:15:09;95631.63;;;8.96;92.60
11124;BME280;5616;42.692;23.312;2023-01-23T04:17:36;95631.63;;;8.96;92.32
11124;BME280;5616;42.692;23.312;2023-01-23T04:20:06;95630.69;;;9.05;91.42
11124;BME280;5616;42.692;23.312;2023-01-23T04:22:33;95631.03;;;9.10;90.71
11124;BME280;5616;42.692;23.312;2023-01-23T04:25:00;95627.28;;;8.96;91.27
11124;BME280;5616;42.692;23.312;2023-01-23T04:27:27;95634.38;;;8.94;91.49
11124;BME280;5616;42.692;23.312;2023-01-23T04:29:55;95636.09;;;8.86;92.01
11124;BME280;5616;42.692;23.312;2023-01-23T04:32:22;95638.22;;;8.90;91.52
11124;BME280;5616;42.692;23.312;2023-01-23T04:34:49;95641.81;;;9.05;91.17
11124;BME280;5616;42.692;23.312;2023-01-23T04:37:18;95642.63;;;9.06;90.52
11124;BME280;5616;42.692;23.312;2023-01-23T04:39:45;95641.63;;;9.07;90.48
11124;BME280;5616;42.692;23.312;2023-01-23T04:42:12;95642.47;;;9.07;89.43
11124;BME280;5616;42.692;23.312;2023-01-23T04:44:58;95633.78;;;9.16;89.15
11124;BME280;5616;42.692;23.312;2023-01-23T04:47:43;95640.84;;;9.06;89.02
11124;BME280;5616;42.692;23.312;2023-01-23T04:50:13;95644.22;;;9.07;88.68
11124;BME280;5616;42.692;23.312;2023-01-23T04:52:45;95643.88;;;9.02;89.09
11124;BME280;5616;42.692;23.312;2023-01-23T04:55:12;95644.84;;;9.01;89.04
11124;BME280;5616;42.692;23.312;2023-01-23T04:57:40;95639.56;;;9.02;89.71
11124;BME280;5616;42.692;23.312;2023-01-23T05:00:14;95644.38;;;8.97;90.48
11124;BME280;5616;42.692;23.312;2023-01-23T05:02:41;95648.22;;;9.01;89.94
11124;BME280;5616;42.692;23.312;2023-01-23T05:05:11;95649.53;;;8.97;90.54
11124;BME280;5616;42.692;23.312;2023-01-23T05:07:38;95641.78;;;8.97;90.61
11124;BME280;5616;42.692;23.312;2023-01-23T05:10:11;95645.78;;;8.92;90.93
11124;BME280;5616;42.692;23.312;2023-01-23T05:12:38;95656.41;;;8.89;91.26
11124;BME280;5616;42.692;23.312;2023-01-23T05:15:08;95656.91;;;8.92;90.79
11124;BME280;5616;42.692;23.312;2023-01-23T05:17:37;95660.44;;;8.91;90.72
11124;BME280;5616;42.692;23.312;2023-01-23T05:20:05;95653.84;;;8.97;90.81
11124;BME280;5616;42.692;23.312;2023-01-23T05:22:35;95661.59;;;9.05;90.34
11124;BME280;5616;42.692;23.312;2023-01-23T05:25:02;95671.59;;;9.08;89.84
11124;BME280;5616;42.692;23.312;2023-01-23T05:27:31;95676.13;;;9.06;89.79
11124;BME280;5616;42.692;23.312;2023-01-23T05:29:58;95678.97;;;8.95;90.85
11124;BME280;5616;42.692;23.312;2023-01-23T05:32:29;95688.31;;;9.04;89.84
11124;BME280;5616;42.692;23.312;2023-01-23T05:35:13;95687.84;;;9.00;90.75
11124;BME280;5616;42.692;23.312;2023-01-23T05:37:41;95702.47;;;9.00;90.70
11124;BME280;5616;42.692;23.312;2023-01-23T05:40:10;95694.44;;;9.03;90.20
11124;BME280;5616;42.692;23.312;2023-01-23T05:43:03;95698.97;;;9.09;89.80
11124;BME280;5616;42.692;23.312;2023-01-23T05:45:58;95702.56;;;9.24;88.79
11124;BME280;5616;42.692;23.312;2023-01-23T05:48:31;95697.53;;;9.14;89.16
11124;BME280;5616;42.692;23.312;2023-01-23T05:51:01;95698.97;;;9.17;88.27
11124;BME280;5616;42.692;23.312;2023-01-23T05:53:28;95698.50;;;9.13;88.73
11124;BME280;5616;42.692;23.312;2023-01-23T05:55:56;95712.16;;;9.14;89.16
11124;BME280;5616;42.692;23.312;2023-01-23T05:58:24;95714.75;;;9.14;88.33
11124;BME280;5616;42.692;23.312;2023-01-23T06:01:15;95713.81;;;9.23;87.26
11124;BME280;5616;42.692;23.312;2023-01-23T06:04:00;95720.41;;;9.17;87.42
11124;BME280;5616;42.692;23.312;2023-01-23T06:06:42;95723.00;;;9.26;87.25
11124;BME280;5616;42.692;23.312;2023-01-23T06:09:09;95728.47;;;9.22;87.51
11124;BME280;5616;42.692;23.312;2023-01-23T06:11:36;95735.28;;;9.32;87.10
11124;BME280;5616;42.692;23.312;2023-01-23T06:14:05;95742.34;;;9.21;87.35
11124;BME280;5616;42.692;23.312;2023-01-23T06:16:32;95739.94;;;9.28;86.79
11124;BME280;5616;42.692;23.312;2023-01-23T06:18:59;95739.78;;;9.30;86.88
11124;BME280;5616;42.692;23.312;2023-01-23T06:21:28;95733.19;;;9.27;87.02
11124;BME280;5616;42.692;23.312;2023-01-23T06:23:55;95746.38;;;9.24;86.80
11124;BME280;5616;42.692;23.312;2023-01-23T06:26:24;95737.97;;;9.22;86.72
11124;BME280;5616;42.692;23.312;2023-01-23T06:28:52;95749.69;;;9.08;87.34
11124;BME280;5616;42.692;23.312;2023-01-23T06:31:21;95754.88;;;9.24;86.70
11124;BME280;5616;42.692;23.312;2023-01-23T06:33:57;95745.34;;;9.17;87.34
11124;BME280;5616;42.692;23.312;2023-01-23T06:36:29;95743.88;;;9.06;87.71
11124;BME280;5616;42.692;23.312;2023-01-23T06:38:56;95747.13;;;9.08;87.79
11124;BME280;5616;42.692;23.312;2023-01-23T06:41:29;95739.16;;;8.94;88.49
11124;BME280;5616;42.692;23.312;2023-01-23T06:44:00;95729.69;;;9.02;88.94
11124;BME280;5616;42.692;23.312;2023-01-23T06:46:29;95746.44;;;9.06;88.80
11124;BME280;5616;42.692;23.312;2023-01-23T06:48:55;95742.06;;;8.99;88.98
11124;BME280;5616;42.692;23.312;2023-01-23T06:51:22;95752.81;;;8.86;90.52
11124;BME280;5616;42.692;23.312;2023-01-23T06:53:49;95748.44;;;8.79;91.12
11124;BME280;5616;42.692;23.312;2023-01-23T06:56:16;95758.06;;;8.77;91.20
11124;BME280;5616;42.692;23.312;2023-01-23T06:58:45;95767.66;;;8.67;91.29
11124;BME280;5616;42.692;23.312;2023-01-23T07:01:33;95771.97;;;8.58;92.75
11124;BME280;5616;42.692;23.312;2023-01-23T07:04:24;95777.75;;;8.60;91.92
11124;BME280;5616;42.692;23.312;2023-01-23T07:06:51;95775.88;;;8.44;93.01
11124;BME280;5616;42.692;23.312;2023-01-23T07:09:18;95770.16;;;8.50;93.05
11124;BME280;5616;42.692;23.312;2023-01-23T07:11:57;95784.00;;;8.57;92.71
11124;BME280;5616;42.692;23.312;2023-01-23T07:14:25;95775.94;;;8.52;93.69
11124;BME280;5616;42.692;23.312;2023-01-23T07:16:54;95784.47;;;8.53;92.78
11124;BME280;5616;42.692;23.312;2023-01-23T07:19:21;95777.94;;;8.41;94.34
11124;BME280;5616;42.692;23.312;2023-01-23T07:21:48;95781.97;;;8.61;92.86
11124;BME280;5616;42.692;23.312;2023-01-23T07:24:15;95780.50;;;8.58;92.88
11124;BME280;5616;42.692;23.312;2023-01-23T07:26:42;95784.72;;;8.42;93.63
11124;BME280;5616;42.692;23.312;2023-01-23T07:29:08;95790.94;;;8.57;92.28
11124;BME280;5616;42.692;23.312;2023-01-23T07:31:36;95804.44;;;8.59;92.85
11124;BME280;5616;42.692;23.312;2023-01-23T07:34:04;95809.66;;;8.67;92.00
11124;BME280;5616;42.692;23.312;2023-01-23T07:36:31;95824.50;;;8.47;93.99
11124;BME280;5616;42.692;23.312;2023-01-23T07:38:57;95813.69;;;8.44;94.20
11124;BME280;5616;42.692;23.312;2023-01-23T07:41:24;95817.16;;;8.35;94.32
11124;BME280;5616;42.692;23.312;2023-01-23T07:43:51;95804.94;;;8.37;95.64
11124;BME280;5616;42.692;23.312;2023-01-23T07:46:18;95807.94;;;8.32;95.51
11124;BME280;5616;42.692;23.312;2023-01-23T07:48:45;95812.38;;;8.40;96.50
11124;BME280;5616;42.692;23.312;2023-01-23T07:51:13;95807.81;;;8.16;96.93
11124;BME280;5616;42.692;23.312;2023-01-23T07:53:40;95814.91;;;8.22;96.31
11124;BME280;5616;42.692;23.312;2023-01-23T07:56:07;95818.56;;;8.29;95.92
11124;BME280;5616;42.692;23.312;2023-01-23T07:58:34;95821.50;;;8.34;95.76
11124;BME280;5616;42.692;23.312;2023-01-23T08:01:06;95835.50;;;8.22;96.20
11124;BME280;5616;42.692;23.312;2023-01-23T08:03:34;95827.88;;;8.30;96.73
11124;BME280;5616;42.692;23.312;2023-01-23T08:06:00;95833.91;;;8.39;95.82
11124;BME280;5616;42.692;23.312;2023-01-23T08:08:29;95831.31;;;8.39;95.31
11124;BME280;5616;42.692;23.312;2023-01-23T08:10:56;95827.00;;;8.39;95.16
11124;BME280;5616;42.692;23.312;2023-01-23T08:13:22;95832.50;;;8.44;94.82
11124;BME280;5616;42.692;23.312;2023-01-23T08:15:49;95821.34;;;8.36;94.83
11124;BME280;5616;42.692;23.312;2023-01-23T08:18:17;95833.66;;;8.32;95.46
11124;BME280;5616;42.692;23.312;2023-01-23T08:20:51;95832.63;;;8.25;95.57
11124;BME280;5616;42.692;23.312;2023-01-23T08:23:18;95844.91;;;8.49;94.48
11124;BME280;5616;42.692;23.312;2023-01-23T08:25:51;95855.06;;;8.50;93.57
11124;BME280;5616;42.692;23.312;2023-01-23T08:28:18;95857.31;;;8.53;91.89
11124;BME280;5616;42.692;23.312;2023-01-23T08:30:45;95870.44;;;8.42;90.85
11124;BME280;5616;42.692;23.312;2023-01-23T08:33:12;95873.59;;;8.19;90.86
11124;BME280;5616;42.692;23.312;2023-01-23T08:35:47;95865.38;;;8.33;90.03
11124;BME280;5616;42.692;23.312;2023-01-23T08:38:14;95869.13;;;8.38;90.27
11124;BME280;5616;42.692;23.312;2023-01-23T08:40:42;95871.19;;;8.52;89.47
11124;BME280;5616;42.692;23.312;2023-01-23T08:43:10;95860.75;;;8.36;89.98
11124;BME280;5616;42.692;23.312;2023-01-23T08:45:38;95867.88;;;8.42;88.93
11124;BME280;5616;42.692;23.312;2023-01-23T08:48:06;95870.28;;;8.44;88.42
11124;BME280;5616;42.692;23.312;2023-01-23T08:50:33;95868.09;;;8.31;88.57
11124;BME280;5616;42.692;23.312;2023-01-23T08:53:00;95866.25;;;8.41;87.42
11124;BME280;5616;42.692;23.312;2023-01-23T08:55:27;95863.16;;;8.55;89.84
11124;BME280;5616;42.692;23.312;2023-01-23T08:57:54;95865.22;;;8.52;87.10
11124;BME280;5616;42.692;23.312;2023-01-23T09:00:23;95860.22;;;8.50;86.16
11124;BME280;5616;42.692;23.312;2023-01-23T09:02:50;95875.72;;;8.58;87.02
11124;BME280;5616;42.692;23.312;2023-01-23T09:05:17;95869.97;;;8.65;86.63
11124;BME280;5616;42.692;23.312;2023-01-23T09:07:43;95859.09;;;8.71;85.42
11124;BME280;5616;42.692;23.312;2023-01-23T09:10:11;95872.34;;;8.58;86.09
11124;BME280;5616;42.692;23.312;2023-01-23T09:12:38;95874.88;;;8.76;84.97
11124;BME280;5616;42.692;23.312;2023-01-23T09:15:07;95860.44;;;8.83;84.62
11124;BME280;5616;42.692;23.312;2023-01-23T09:17:35;95867.88;;;8.86;84.29
11124;BME280;5616;42.692;23.312;2023-01-23T09:20:02;95867.56;;;8.89;83.81
11124;BME280;5616;42.692;23.312;2023-01-23T09:22:31;95871.38;;;8.77;84.02
11124;BME280;5616;42.692;23.312;2023-01-23T09:24:58;95876.16;;;8.72;84.81
11124;BME280;5616;42.692;23.312;2023-01-23T09:27:25;95881.66;;;8.77;83.80
11124;BME280;5616;42.692;23.312;2023-01-23T09:29:51;95884.81;;;8.71;83.91
11124;BME280;5616;42.692;23.312;2023-01-23T09:32:18;95872.16;;;8.77;84.43
11124;BME280;5616;42.692;23.312;2023-01-23T09:34:47;95862.75;;;8.68;84.50
11124;BME280;5616;42.692;23.312;2023-01-23T09:37:14;95877.47;;;8.76;84.27
11124;BME280;5616;42.692;23.312;2023-01-23T09:39:41;95867.56;;;8.63;84.99
11124;BME280;5616;42.692;23.312;2023-01-23T09:42:15;95871.31;;;8.69;84.34
11124;BME280;5616;42.692;23.312;2023-01-23T09:44:45;95864.88;;;8.73;83.22
11124;BME280;5616;42.692;23.312;2023-01-23T09:47:16;95860.03;;;8.70;83.35
11124;BME280;5616;42.692;23.312;2023-01-23T09:49:50;95856.38;;;8.54;84.76
11124;BME280;5616;42.692;23.312;2023-01-23T09:52:22;95854.97;;;8.60;84.75
11124;BME280;5616;42.692;23.312;2023-01-23T09:54:53;95848.44;;;8.66;84.58
11124;BME280;5616;42.692;23.312;2023-01-23T09:57:25;95869.47;;;8.61;85.31
11124;BME280;5616;42.692;23.312;2023-01-23T10:00:00;95853.22;;;8.43;85.44
11124;BME280;5616;42.692;23.312;2023-01-23T10:02:29;95868.66;;;8.60;85.43
11124;BME280;5616;42.692;23.312;2023-01-23T10:04:58;95871.00;;;8.54;85.90
11124;BME280;5616;42.692;23.312;2023-01-23T10:07:43;95858.47;;;8.33;87.38
11124;BME280;5616;42.692;23.312;2023-01-23T10:10:45;95861.03;;;8.33;87.96
11124;BME280;5616;42.692;23.312;2023-01-23T10:13:16;95857.16;;;8.29;88.37
11124;BME280;5616;42.692;23.312;2023-01-23T10:16:01;95848.75;;;8.27;89.21
11124;BME280;5616;42.692;23.312;2023-01-23T10:18:34;95857.41;;;8.26;88.20
11124;BME280;5616;42.692;23.312;2023-01-23T10:21:15;95849.31;;;8.21;89.66
11124;BME280;5616;42.692;23.312;2023-01-23T10:23:47;95857.16;;;8.29;89.62
11124;BME280;5616;42.692;23.312;2023-01-23T10:26:21;95856.59;;;8.26;90.01
11124;BME280;5616;42.692;23.312;2023-01-23T10:28:52;95848.97;;;8.16;90.54
11124;BME280;5616;42.692;23.312;2023-01-23T10:31:29;95855.41;;;8.20;91.08
11124;BME280;5616;42.692;23.312;2023-01-23T10:34:05;95855.88;;;8.16;91.62
11124;BME280;5616;42.692;23.312;2023-01-23T10:36:43;95849.47;;;8.20;91.03
11124;BME280;5616;42.692;23.312;2023-01-23T10:39:15;95856.44;;;8.10;92.24
11124;BME280;5616;42.692;23.312;2023-01-23T10:41:45;95860.47;;;8.12;92.26
11124;BME280;5616;42.692;23.312;2023-01-23T10:44:14;95852.63;;;8.14;93.20
11124;BME280;5616;42.692;23.312;2023-01-23T10:46:45;95859.66;;;8.12;93.31
11124;BME280;5616;42.692;23.312;2023-01-23T10:49:26;95843.94;;;8.15;92.44
11124;BME280;5616;42.692;23.312;2023-01-23T10:51:55;95837.13;;;8.06;92.73
11124;BME280;5616;42.692;23.312;2023-01-23T10:54:23;95836.59;;;8.20;94.11
11124;BME280;5616;42.692;23.312;2023-01-23T10:56:55;95838.16;;;8.30;92.99
11124;BME280;5616;42.692;23.312;2023-01-23T10:59:30;95848.41;;;8.40;91.71
11124;BME280;5616;42.692;23.312;2023-01-23T11:02:02;95850.59;;;8.35;92.11
11124;BME280;5616;42.692;23.312;2023-01-23T11:04:34;95853.13;;;8.17;93.29
11124;BME280;5616;42.692;23.312;2023-01-23T11:07:06;95858.28;;;8.17;93.46
11124;BME280;5616;42.692;23.312;2023-01-23T11:09:45;95847.78;;;8.11;94.33
11124;BME280;5616;42.692;23.312;2023-01-23T11:12:17;95848.97;;;8.16;93.88
11124;BME280;5616;42.692;23.312;2023-01-23T11:14:45;95855.41;;;8.20;92.56
11124;BME280;5616;42.692;23.312;2023-01-23T11:17:15;95856.00;;;8.14;93.14
11124;BME280;5616;42.692;23.312;2023-01-23T11:19:44;95855.13;;;8.06;94.00
11124;BME280;5616;42.692;23.312;2023-01-23T11:22:29;95862.53;;;7.91;94.60
11124;BME280;5616;42.692;23.312;2023-01-23T11:24:57;95862.53;;;7.91;94.51
11124;BME280;5616;42.692;23.312;2023-01-23T11:27:25;95859.28;;;7.89;94.99
11124;BME280;5616;42.692;23.312;2023-01-23T11:30:16;95855.00;;;7.80;95.01
11124;BME280;5616;42.692;23.312;2023-01-23T11:32:53;95862.22;;;7.76;96.09
11124;BME280;5616;42.692;23.312;2023-01-23T11:35:24;95861.03;;;7.71;96.69
11124;BME280;5616;42.692;23.312;2023-01-23T11:37:57;95857.66;;;7.88;98.25
11124;BME280;5616;42.692;23.312;2023-01-23T11:40:27;95852.19;;;8.00;94.91
11124;BME280;5616;42.692;23.312;2023-01-23T11:42:54;95859.94;;;7.91;96.29
11124;BME280;5616;42.692;23.312;2023-01-23T11:45:32;95852.34;;;7.72;97.11
11124;BME280;5616;42.692;23.312;2023-01-23T11:48:16;95862.44;;;7.83;97.26
11124;BME280;5616;42.692;23.312;2023-01-23T11:50:48;95860.75;;;7.74;98.53
11124;BME280;5616;42.692;23.312;2023-01-23T11:53:21;95858.56;;;7.79;96.95
11124;BME280;5616;42.692;23.312;2023-01-23T11:56:02;95853.13;;;7.82;97.13
11124;BME280;5616;42.692;23.312;2023-01-23T11:58:51;95862.16;;;7.86;96.40
11124;BME280;5616;42.692;23.312;2023-01-23T12:01:28;95851.06;;;7.85;97.95
11124;BME280;5616;42.692;23.312;2023-01-23T12:04:25;95851.13;;;7.93;97.65
11124;BME280;5616;42.692;23.312;2023-01-23T12:09:58;95851.41;;;7.90;96.63
11124;BME280;5616;42.692;23.312;2023-01-23T12:12:57;95844.06;;;7.95;95.60
11124;BME280;5616;42.692;23.312;2023-01-23T12:15:31;95850.72;;;7.98;95.58
11124;BME280;5616;42.692;23.312;2023-01-23T12:18:07;95850.03;;;7.96;95.55
11124;BME280;5616;42.692;23.312;2023-01-23T12:20:44;95846.28;;;7.90;96.38
11124;BME280;5616;42.692;23.312;2023-01-23T12:23:28;95847.09;;;7.91;96.47
11124;BME280;5616;42.692;23.312;2023-01-23T12:26:10;95849.94;;;7.88;97.02
11124;BME280;5616;42.692;23.312;2023-01-23T12:31:43;95844.44;;;7.83;95.95
11124;BME280;5616;42.692;23.312;2023-01-23T12:34:29;95842.25;;;7.88;96.22
11124;BME280;5616;42.692;23.312;2023-01-23T12:37:12;95843.94;;;7.79;96.63
11124;BME280;5616;42.692;23.312;2023-01-23T12:39:58;95841.47;;;7.87;96.21
11124;BME280;5616;42.692;23.312;2023-01-23T12:42:29;95835.72;;;7.93;95.61
11124;BME280;5616;42.692;23.312;2023-01-23T12:45:02;95839.75;;;7.96;94.65
11124;BME280;5616;42.692;23.312;2023-01-23T12:47:35;95841.66;;;7.94;95.46
11124;BME280;5616;42.692;23.312;2023-01-23T12:50:15;95845.94;;;8.03;94.90
11124;BME280;5616;42.692;23.312;2023-01-23T12:52:48;95841.47;;;8.05;93.85
11124;BME280;5616;42.692;23.312;2023-01-23T12:55:19;95839.09;;;7.94;93.92
11124;BME280;5616;42.692;23.312;2023-01-23T12:57:51;95846.88;;;7.84;95.13
11124;BME280;5616;42.692;23.312;2023-01-23T13:00:32;95846.16;;;7.92;95.03
11124;BME280;5616;42.692;23.312;2023-01-23T13:03:12;95844.59;;;7.99;93.55
11124;BME280;5616;42.692;23.312;2023-01-23T13:05:46;95857.53;;;8.07;93.65
11124;BME280;5616;42.692;23.312;2023-01-23T13:08:22;95855.78;;;8.08;92.96
11124;BME280;5616;42.692;23.312;2023-01-23T13:11:04;95862.69;;;8.07;92.94
11124;BME280;5616;42.692;23.312;2023-01-23T13:13:54;95858.81;;;8.03;92.84
11124;BME280;5616;42.692;23.312;2023-01-23T13:16:24;95854.88;;;7.99;93.79
11124;BME280;5616;42.692;23.312;2023-01-23T13:18:53;95861.38;;;8.03;94.14
11124;BME280;5616;42.692;23.312;2023-01-23T13:21:38;95857.75;;;7.78;94.63
11124;BME280;5616;42.692;23.312;2023-01-23T13:24:39;95862.69;;;8.07;94.97
11124;BME280;5616;42.692;23.312;2023-01-23T13:27:37;95864.72;;;8.03;93.63
11124;BME280;5616;42.692;23.312;2023-01-23T13:30:40;95864.53;;;7.97;94.06
11124;BME280;5616;42.692;23.312;2023-01-23T13:33:46;95862.41;;;7.92;94.54
11124;BME280;5616;42.692;23.312;2023-01-23T13:36:21;95861.72;;;7.90;95.32
11124;BME280;5616;42.692;23.312;2023-01-23T13:45:23;95861.88;;;7.89;95.54